Time;durP1;ratioP1;P1;durP2;ratioP2;P2;SDS_P1;SDS_P2;PMS_P1;PMS_P2;Temp;Humidity;BMP_temperature;BMP_pressure;BME280_temperature;BME280_humidity;BME280_pressure;Samples;Min_cycle;Max_cycle;Signal;HPM_P1;HPM_P2
2022/01/05 00:00:33;;;;;;;;;;;;;;;;;;5094083;28;20369;-74
2022/01/05 00:02:58;;;;;;;;;;;;;;;;;;5096650;28;20004;-74
2022/01/05 00:05:23;;;;;;;;;;;;;;;;;;5096073;28;20369;-74
2022/01/05 00:07:49;;;;;;;;;;;;;;;;;;5097317;28;19916;-74
2022/01/05 00:10:14;;;;;;;;;;;;;;;;;;5097313;28;19920;-74
2022/01/05 00:12:40;;;;;;;;;;;;;;;;;;5095401;28;20019;-74
2022/01/05 00:15:05;;;;;;;;;;;;;;;;;;5097272;28;19917;-74
2022/01/05 00:17:30;;;;;;;;;;;;;;;;;;5096361;28;19924;-74
2022/01/05 00:19:56;;;;;;;;;;;;;;;;;;5096965;28;19963;-74
2022/01/05 00:22:22;;;;;;;;;;;;;;;;;;5097850;28;19923;-74
2022/01/05 00:24:47;;;;;;;;;;;;;;;;;;5096978;28;19973;-74
2022/01/05 00:27:13;;;;;;;;;;;;;;;;;;5096997;28;19916;-74
2022/01/05 00:29:38;;;;;;;;;;;;;;;;;;5095616;28;19917;-74
2022/01/05 00:32:03;;;;;;;;;;;;;;;;;;5096887;28;20069;-74
2022/01/05 00:34:29;;;;;;;;;;;;;;;;;;5094700;28;19923;-74
2022/01/05 00:36:54;;;;;;;;;;;;;;;;;;5096980;28;19920;-74
2022/01/05 00:39:19;;;;;;;;;;;;;;;;;;5096890;28;20312;-74
2022/01/05 00:41:45;;;;;;;;;;;;;;;;;;5096851;28;19923;-74
2022/01/05 00:44:10;;;;;;;;;;;;;;;;;;5096472;28;19973;-74
2022/01/05 00:46:36;;;;;;;;;;;;;;;;;;5096250;28;19990;-74
2022/01/05 00:49:01;;;;;;;;;;;;;;;;;;5096652;28;20387;-73
2022/01/05 00:51:26;;;;;;;;;;;;;;;;;;5096762;28;19916;-73
2022/01/05 00:53:52;;;;;;;;;;;;;;;;;;5096349;28;19920;-73
2022/01/05 00:56:17;;;;;;;;;;;;;;;;;;5096203;28;19951;-74
2022/01/05 00:58:42;;;;;;;;;;;;;;;;;;5096473;28;19916;-74
2022/01/05 01:01:08;;;;;;;;;;;;;;;;;;5096288;28;19916;-73
2022/01/05 01:03:33;;;;;;;;;;;;;;;;;;5095838;28;19924;-73
2022/01/05 01:05:59;;;;;;;;;;;;;;;;;;5096329;28;19916;-72
2022/01/05 01:08:25;;;;;;;;;;;;;;;;;;5096305;28;19920;-72
2022/01/05 01:10:51;;;;;;;;;;;;;;;;;;5096292;28;19916;-72
2022/01/05 01:13:17;;;;;;;;;;;;;;;;;;5094930;28;19958;-72
2022/01/05 01:15:43;;;;;;;;;;;;;;;;;;5096009;28;20023;-72
2022/01/05 01:18:08;;;;;;;;;;;;;;;;;;5096083;28;19916;-72
2022/01/05 01:20:34;;;;;;;;;;;;;;;;;;5096135;28;19927;-72
2022/01/05 01:22:59;;;;;;;;;;;;;;;;;;5096146;28;19916;-72
2022/01/05 01:25:25;;;;;;;;;;;;;;;;;;5095952;28;19931;-72
2022/01/05 01:27:50;;;;;;;;;;;;;;;;;;5095749;28;19916;-73
2022/01/05 01:30:15;;;;;;;;;;;;;;;;;;5095727;28;19920;-72
2022/01/05 01:32:41;;;;;;;;;;;;;;;;;;5095885;28;19919;-73
2022/01/05 01:35:07;;;;;;;;;;;;;;;;;;5095772;28;20015;-72
2022/01/05 01:37:32;;;;;;;;;;;;;;;;;;5095385;28;19916;-72
2022/01/05 01:39:57;;;;;;;;;;;;;;;;;;5095847;28;20338;-73
2022/01/05 01:42:22;;;;;;;;;;;;;;;;;;5094476;28;19916;-72
2022/01/05 01:44:48;;;;;;;;;;;;;;;;;;5095464;28;19920;-72
2022/01/05 01:47:13;;;;;;;;;;;;;;;;;;5095218;28;19927;-73
2022/01/05 01:49:38;;;;;;;;;;;;;;;;;;5095234;28;20301;-73
2022/01/05 01:52:04;;;;;;;;;;;;;;;;;;5095491;28;19959;-73
2022/01/05 01:54:29;;;;;;;;;;;;;;;;;;5095134;28;19927;-73
2022/01/05 01:56:55;;;;;;;;;;;;;;;;;;5094895;28;19994;-73
2022/01/05 01:59:21;;;;;;;;;;;;;;;;;;5095196;28;19924;-73
2022/01/05 02:01:46;;;;;;;;;;;;;;;;;;5095001;28;19916;-72
2022/01/05 02:04:11;;;;;;;;;;;;;;;;;;5094423;28;19922;-72
2022/01/05 02:06:37;;;;;;;;;;;;;;;;;;5094948;28;19916;-72
2022/01/05 02:09:03;;;;;;;;;;;;;;;;;;5095103;28;19916;-72
2022/01/05 02:11:30;;;;;;;;;;;;;;;;;;5094583;28;19916;-72
2022/01/05 02:13:56;;;;;;;;;;;;;;;;;;5094625;28;20011;-72
2022/01/05 02:16:28;;;;;;;;;;;;;;;;;;5094793;28;20016;-72
2022/01/05 02:19:00;;;;;;;;;;;;;;;;;;5094647;28;20595;-72
2022/01/05 02:21:26;;;;;;;;;;;;;;;;;;5094792;28;19920;-72
2022/01/05 02:23:51;;;;;;;;;;;;;;;;;;5094334;28;19920;-73
2022/01/05 02:26:17;;;;;;;;;;;;;;;;;;5094376;28;19932;-73
2022/01/05 02:28:43;;;;;;;;;;;;;;;;;;5093526;28;19923;-73
2022/01/05 02:31:08;;;;;;;;;;;;;;;;;;5093297;28;20425;-73
2022/01/05 02:33:34;;;;;;;;;;;;;;;;;;5094577;28;19920;-73
2022/01/05 02:36:00;;;;;;;;;;;;;;;;;;5093826;28;19916;-72
2022/01/05 02:38:25;;;;;;;;;;;;;;;;;;5093319;28;19923;-73
2022/01/05 02:40:51;;;;;;;;;;;;;;;;;;5094511;28;19916;-73
2022/01/05 02:43:16;;;;;;;;;;;;;;;;;;5094079;28;19916;-73
2022/01/05 02:45:42;;;;;;;;;;;;;;;;;;5094359;28;19927;-73
2022/01/05 02:48:07;;;;;;;;;;;;;;;;;;5094066;28;20377;-73
2022/01/05 02:50:33;;;;;;;;;;;;;;;;;;5094227;28;20266;-73
2022/01/05 02:52:58;;;;;;;;;;;;;;;;;;5094105;28;19963;-73
2022/01/05 02:55:23;;;;;;;;;;;;;;;;;;5094239;28;20334;-73
2022/01/05 02:57:48;;;;;;;;;;;;;;;;;;5093082;28;19923;-73
2022/01/05 03:00:16;;;;;;;;;;;;;;;;;;5093976;28;20019;-73
2022/01/05 03:02:41;;;;;;;;;;;;;;;;;;5094298;28;19916;-73
2022/01/05 03:05:07;;;;;;;;;;;;;;;;;;5093171;28;20284;-73
2022/01/05 03:07:35;;;;;;;;;;;;;;;;;;5094073;28;19920;-73
2022/01/05 03:10:00;;;;;;;;;;;;;;;;;;5093906;28;20385;-73
2022/01/05 03:12:26;;;;;;;;;;;;;;;;;;5094009;28;19961;-73
2022/01/05 03:14:51;;;;;;;;;;;;;;;;;;5094262;28;19920;-73
2022/01/05 03:17:16;;;;;;;;;;;;;;;;;;5093930;28;19920;-73
2022/01/05 03:19:41;;;;;;;;;;;;;;;;;;5094125;28;19969;-73
2022/01/05 03:22:07;;;;;;;;;;;;;;;;;;5093667;28;19916;-73
2022/01/05 03:24:32;;;;;;;;;;;;;;;;;;5093787;28;19920;-73
2022/01/05 03:26:57;;;;;;;;;;;;;;;;;;5093604;28;19913;-73
2022/01/05 03:29:23;;;;;;;;;;;;;;;;;;5093794;28;19923;-73
2022/01/05 03:31:49;;;;;;;;;;;;;;;;;;5093879;28;19923;-73
2022/01/05 03:34:18;;;;;;;;;;;;;;;;;;5093983;28;19971;-73
2022/01/05 03:36:43;;;;;;;;;;;;;;;;;;5096131;28;19922;-73
2022/01/05 03:39:09;;;;;;;;;;;;;;;;;;5098071;28;20000;-73
2022/01/05 03:41:34;;;;;;;;;;;;;;;;;;5097806;28;20311;-73
2022/01/05 03:43:59;;;;;;;;;;;;;;;;;;5097768;28;19920;-73
2022/01/05 03:46:24;;;;;;;;;;;;;;;;;;5097461;28;19915;-73
2022/01/05 03:48:50;;;;;;;;;;;;;;;;;;5096961;28;19916;-73
2022/01/05 03:51:15;;;;;;;;;;;;;;;;;;5097871;28;20266;-73
2022/01/05 03:53:40;;;;;;;;;;;;;;;;;;5097685;28;19916;-73
2022/01/05 03:56:05;;;;;;;;;;;;;;;;;;5097229;28;19916;-73
2022/01/05 03:58:31;;;;;;;;;;;;;;;;;;5097855;28;19916;-73
2022/01/05 04:00:56;;;;;;;;;;;;;;;;;;5097585;28;19916;-73
2022/01/05 04:03:21;;;;;;;;;;;;;;;;;;5096547;28;19916;-73
2022/01/05 04:05:47;;;;;;;;;;;;;;;;;;5097427;28;20363;-73
2022/01/05 04:08:12;;;;;;;;;;;;;;;;;;5097199;28;19954;-73
2022/01/05 04:10:39;;;;;;;;;;;;;;;;;;5097166;28;20365;-73
2022/01/05 04:13:04;;;;;;;;;;;;;;;;;;5096438;28;19954;-73
2022/01/05 04:15:29;;;;;;;;;;;;;;;;;;5097116;28;20489;-73
2022/01/05 04:17:55;;;;;;;;;;;;;;;;;;5097184;28;20282;-73
2022/01/05 04:20:20;;;;;;;;;;;;;;;;;;5097272;28;20015;-73
2022/01/05 04:22:46;;;;;;;;;;;;;;;;;;5097236;28;20361;-73
2022/01/05 04:25:12;;;;;;;;;;;;;;;;;;5096999;28;20018;-73
2022/01/05 04:27:37;;;;;;;;;;;;;;;;;;5095546;28;19959;-73
2022/01/05 04:30:04;;;;;;;;;;;;;;;;;;5096847;28;19923;-73
2022/01/05 04:32:29;;;;;;;;;;;;;;;;;;5097070;28;19916;-73
2022/01/05 04:34:54;;;;;;;;;;;;;;;;;;5095711;28;19977;-73
2022/01/05 04:37:20;;;;;;;;;;;;;;;;;;5096630;28;19959;-73
2022/01/05 04:39:45;;;;;;;;;;;;;;;;;;5096452;28;19916;-73
2022/01/05 04:42:11;;;;;;;;;;;;;;;;;;5096798;28;19920;-73
2022/01/05 04:44:36;;;;;;;;;;;;;;;;;;5096628;28;19965;-73
2022/01/05 04:47:02;;;;;;;;;;;;;;;;;;5095978;28;19962;-72
2022/01/05 04:49:27;;;;;;;;;;;;;;;;;;5095702;28;20400;-72
2022/01/05 04:51:52;;;;;;;;;;;;;;;;;;5096686;28;20315;-73
2022/01/05 04:54:18;;;;;;;;;;;;;;;;;;5096240;28;20472;-73
2022/01/05 04:56:43;;;;;;;;;;;;;;;;;;5095518;28;19985;-73
2022/01/05 04:59:08;;;;;;;;;;;;;;;;;;5096768;28;19916;-73
2022/01/05 05:01:34;;;;;;;;;;;;;;;;;;5095181;28;19955;-73
2022/01/05 05:03:59;;;;;;;;;;;;;;;;;;5095552;28;20319;-73
2022/01/05 05:06:24;;;;;;;;;;;;;;;;;;5095073;28;19916;-73
2022/01/05 05:08:50;;;;;;;;;;;;;;;;;;5096424;28;20025;-73
2022/01/05 05:11:15;;;;;;;;;;;;;;;;;;5096147;28;19916;-73
2022/01/05 05:13:40;;;;;;;;;;;;;;;;;;5096511;28;19916;-73
2022/01/05 05:16:06;;;;;;;;;;;;;;;;;;5095937;28;20261;-73
2022/01/05 05:18:32;;;;;;;;;;;;;;;;;;5096209;28;19920;-73
2022/01/05 05:20:57;;;;;;;;;;;;;;;;;;5096205;28;20433;-73
2022/01/05 05:23:22;;;;;;;;;;;;;;;;;;5095940;28;19916;-73
2022/01/05 05:25:48;;;;;;;;;;;;;;;;;;5095797;28;19920;-73
2022/01/05 05:28:13;;;;;;;;;;;;;;;;;;5095924;28;19916;-73
2022/01/05 05:30:39;;;;;;;;;;;;;;;;;;5095998;28;20020;-73
2022/01/05 05:33:05;;;;;;;;;;;;;;;;;;5095974;28;20022;-73
2022/01/05 05:35:30;;;;;;;;;;;;;;;;;;5095801;28;19966;-73
2022/01/05 05:37:56;;;;;;;;;;;;;;;;;;5095635;28;19923;-73
2022/01/05 05:40:21;;;;;;;;;;;;;;;;;;5094293;28;20354;-73
2022/01/05 05:42:47;;;;;;;;;;;;;;;;;;5095665;28;20350;-73
2022/01/05 05:45:13;;;;;;;;;;;;;;;;;;5095456;28;19920;-73
2022/01/05 05:47:38;;;;;;;;;;;;;;;;;;5095055;28;19963;-73
2022/01/05 05:50:04;;;;;;;;;;;;;;;;;;5094124;28;20345;-73
2022/01/05 05:52:29;;;;;;;;;;;;;;;;;;5095584;28;19969;-74
2022/01/05 05:54:54;;;;;;;;;;;;;;;;;;5094378;28;19925;-73
2022/01/05 05:57:21;;;;;;;;;;;;;;;;;;5095385;28;19920;-73
2022/01/05 05:59:46;;;;;;;;;;;;;;;;;;5094421;28;19983;-73
2022/01/05 06:02:12;;;;;;;;;;;;;;;;;;5095436;28;20004;-73
2022/01/05 06:04:37;;;;;;;;;;;;;;;;;;5094280;28;20392;-73
2022/01/05 06:07:02;;;;;;;;;;;;;;;;;;5095155;28;20003;-73
2022/01/05 06:09:28;;;;;;;;;;;;;;;;;;5094667;28;20010;-73
2022/01/05 06:11:53;;;;;;;;;;;;;;;;;;5094846;28;19916;-73
2022/01/05 06:14:18;;;;;;;;;;;;;;;;;;5093723;28;19912;-73
2022/01/05 06:16:44;;;;;;;;;;;;;;;;;;5094815;28;19923;-73
2022/01/05 06:19:09;;;;;;;;;;;;;;;;;;5076530;28;19998;-73
2022/01/05 06:21:35;;;;;;;;;;;;;;;;;;5094851;28;20381;-73
2022/01/05 06:24:01;;;;;;;;;;;;;;;;;;5094648;28;19927;-73
2022/01/05 06:26:26;;;;;;;;;;;;;;;;;;5094800;28;20345;-73
2022/01/05 06:28:52;;;;;;;;;;;;;;;;;;5094382;28;19970;-73
2022/01/05 06:31:17;;;;;;;;;;;;;;;;;;5094447;28;19959;-73
2022/01/05 06:33:42;;;;;;;;;;;;;;;;;;5094739;28;19920;-73
2022/01/05 06:36:08;;;;;;;;;;;;;;;;;;5093935;28;20023;-73
2022/01/05 06:38:33;;;;;;;;;;;;;;;;;;5094867;28;19916;-73
2022/01/05 06:40:59;;;;;;;;;;;;;;;;;;5094482;28;19916;-73
2022/01/05 06:43:24;;;;;;;;;;;;;;;;;;5093399;28;19916;-73
2022/01/05 06:45:50;;;;;;;;;;;;;;;;;;5094617;28;19927;-73
2022/01/05 06:48:15;;;;;;;;;;;;;;;;;;5094222;28;19986;-73
2022/01/05 06:50:40;;;;;;;;;;;;;;;;;;5094475;28;20006;-73
2022/01/05 06:53:06;;;;;;;;;;;;;;;;;;5093769;28;19961;-73
2022/01/05 06:55:31;;;;;;;;;;;;;;;;;;5093404;28;19916;-73
2022/01/05 06:57:56;;;;;;;;;;;;;;;;;;5094286;28;20415;-73
2022/01/05 07:00:23;;;;;;;;;;;;;;;;;;5094389;28;19949;-73
2022/01/05 07:02:49;;;;;;;;;;;;;;;;;;5093933;28;19942;-73
2022/01/05 07:05:14;;;;;;;;;;;;;;;;;;5092074;28;19928;-73
2022/01/05 07:07:39;;;;;;;;;;;;;;;;;;5093816;28;19912;-73
2022/01/05 07:10:05;;;;;;;;;;;;;;;;;;5092491;28;19920;-73
2022/01/05 07:12:32;;;;;;;;;;;;;;;;;;5093360;28;19918;-73
2022/01/05 07:14:57;;;;;;;;;;;;;;;;;;5094204;28;19923;-74
2022/01/05 07:17:22;;;;;;;;;;;;;;;;;;5093486;28;19916;-73
2022/01/05 07:19:47;;;;;;;;;;;;;;;;;;5092194;28;19916;-73
2022/01/05 07:22:13;;;;;;;;;;;;;;;;;;5093411;28;19923;-73
2022/01/05 07:24:38;;;;;;;;;;;;;;;;;;5093663;28;20007;-73
2022/01/05 07:27:03;;;;;;;;;;;;;;;;;;5093532;28;20373;-73
2022/01/05 07:29:29;;;;;;;;;;;;;;;;;;5093915;28;20006;-73
2022/01/05 07:31:54;;;;;;;;;;;;;;;;;;5093852;28;20061;-73
2022/01/05 07:34:19;;;;;;;;;;;;;;;;;;5093841;28;19923;-73
2022/01/05 07:36:45;;;;;;;;;;;;;;;;;;5091442;28;19920;-73
2022/01/05 07:39:10;;;;;;;;;;;;;;;;;;5093404;28;19969;-74
2022/01/05 07:41:36;;;;;;;;;;;;;;;;;;5093943;28;19916;-74
2022/01/05 07:44:02;;;;;;;;;;;;;;;;;;5093701;28;20017;-73
2022/01/05 07:46:27;;;;;;;;;;;;;;;;;;5093425;28;19916;-74
2022/01/05 07:48:52;;;;;;;;;;;;;;;;;;5093577;28;19916;-74
2022/01/05 07:51:18;;;;;;;;;;;;;;;;;;5093702;28;20014;-73
2022/01/05 07:53:43;;;;;;;;;;;;;;;;;;5093415;28;20294;-73
2022/01/05 07:56:08;;;;;;;;;;;;;;;;;;5093066;28;19916;-74
2022/01/05 07:58:35;;;;;;;;;;;;;;;;;;5088836;28;19917;-72
2022/01/05 08:01:00;;;;;;;;;;;;;;;;;;5078984;28;20251;-73
2022/01/05 08:03:26;;;;;;;;;;;;;;;;;;5073470;28;20062;-72
2022/01/05 08:05:51;;;;;;;;;;;;;;;;;;5071065;28;19921;-74
2022/01/05 08:08:17;;;;;;;;;;;;;;;;;;5093120;28;19922;-73
2022/01/05 08:10:43;;;;;;;;;;;;;;;;;;5093258;28;20342;-73
2022/01/05 08:13:08;;;;;;;;;;;;;;;;;;5093502;28;19920;-73
2022/01/05 08:15:33;;;;;;;;;;;;;;;;;;5093548;28;19955;-73
2022/01/05 08:17:59;;;;;;;;;;;;;;;;;;5093396;28;20292;-74
2022/01/05 08:20:24;;;;;;;;;;;;;;;;;;5092131;28;19916;-74
2022/01/05 08:22:49;;;;;;;;;;;;;;;;;;5095976;28;19962;-75
2022/01/05 08:25:16;;;;;;;;;;;;;;;;;;5090797;28;19921;-73
2022/01/05 08:27:46;;;;;;;;;;;;;;;;;;5085201;28;19917;-72
2022/01/05 08:30:12;;;;;;;;;;;;;;;;;;5076403;28;19916;-73
2022/01/05 08:32:37;;;;;;;;;;;;;;;;;;5076797;28;20333;-73
2022/01/05 08:35:03;;;;;;;;;;;;;;;;;;5076704;28;20030;-74
2022/01/05 08:37:28;;;;;;;;;;;;;;;;;;5076491;28;19916;-72
2022/01/05 08:39:53;;;;;;;;;;;;;;;;;;5086464;28;19923;-73
2022/01/05 08:42:19;;;;;;;;;;;;;;;;;;5096847;28;20313;-74
2022/01/05 08:44:44;;;;;;;;;;;;;;;;;;5096743;28;20433;-72
2022/01/05 08:47:10;;;;;;;;;;;;;;;;;;5096378;28;19927;-72
2022/01/05 08:49:35;;;;;;;;;;;;;;;;;;5096603;28;19920;-72
2022/01/05 08:52:00;;;;;;;;;;;;;;;;;;5095437;28;19970;-72
2022/01/05 08:54:26;;;;;;;;;;;;;;;;;;5096600;28;19916;-72
2022/01/05 08:56:54;;;;;;;;;;;;;;;;;;5095005;28;19916;-72
2022/01/05 08:59:20;;;;;;;;;;;;;;;;;;5096454;28;19916;-72
2022/01/05 09:01:45;;;;;;;;;;;;;;;;;;5096325;28;19926;-72
2022/01/05 09:04:10;;;;;;;;;;;;;;;;;;5096493;28;19938;-73
2022/01/05 09:06:35;;;;;;;;;;;;;;;;;;5096002;28;20327;-72
2022/01/05 09:09:01;;;;;;;;;;;;;;;;;;5096311;28;19920;-72
2022/01/05 09:11:27;;;;;;;;;;;;;;;;;;5078234;28;20261;-72
2022/01/05 09:13:52;;;;;;;;;;;;;;;;;;5096057;28;19916;-72
2022/01/05 09:16:18;;;;;;;;;;;;;;;;;;5095766;28;19969;-72
2022/01/05 09:18:44;;;;;;;;;;;;;;;;;;5095220;28;19920;-73
2022/01/05 09:21:09;;;;;;;;;;;;;;;;;;5095987;28;19922;-73
2022/01/05 09:23:34;;;;;;;;;;;;;;;;;;5096248;28;20373;-72
2022/01/05 09:26:00;;;;;;;;;;;;;;;;;;5096244;28;19924;-72
2022/01/05 09:28:26;;;;;;;;;;;;;;;;;;5096083;28;19920;-72
2022/01/05 09:30:51;;;;;;;;;;;;;;;;;;5096140;28;19939;-72
2022/01/05 09:33:16;;;;;;;;;;;;;;;;;;5094758;28;19922;-72
2022/01/05 09:35:43;;;;;;;;;;;;;;;;;;5095785;28;20413;-72
2022/01/05 09:38:21;;;;;;;;;;;;;;;;;;5095784;28;19920;-72
2022/01/05 09:43:32;;;;;;;;;;;;;;;;;;5095780;28;19916;-72
2022/01/05 09:46:07;;;;;;;;;;;;;;;;;;5095631;28;19989;-72
2022/01/05 09:48:50;;;;;;;;;;;;;;;;;;5094569;28;20265;-72
2022/01/05 09:51:18;;;;;;;;;;;;;;;;;;5093438;28;19923;-72
2022/01/05 09:53:43;;;;;;;;;;;;;;;;;;5094186;28;19951;-72
2022/01/05 09:56:08;;;;;;;;;;;;;;;;;;5094820;28;19916;-71
2022/01/05 09:58:35;;;;;;;;;;;;;;;;;;5094392;28;19955;-72
2022/01/05 10:01:04;;;;;;;;;;;;;;;;;;5094835;28;21474;-72
2022/01/05 10:03:29;;;;;;;;;;;;;;;;;;5094478;28;19920;-70
2022/01/05 10:05:55;;;;;;;;;;;;;;;;;;5094031;28;19950;-71
2022/01/05 10:08:20;;;;;;;;;;;;;;;;;;5094893;28;19913;-71
2022/01/05 10:10:46;;;;;;;;;;;;;;;;;;5095204;28;19923;-72
2022/01/05 10:13:11;;;;;;;;;;;;;;;;;;5095052;28;19916;-72
2022/01/05 10:15:36;;;;;;;;;;;;;;;;;;5095011;28;19951;-72
2022/01/05 10:18:09;;;;;;;;;;;;;;;;;;5094992;28;20385;-72
2022/01/05 10:20:35;;;;;;;;;;;;;;;;;;5094995;28;19969;-72
2022/01/05 10:23:00;;;;;;;;;;;;;;;;;;5094918;28;19916;-71
2022/01/05 10:25:25;;;;;;;;;;;;;;;;;;5094761;28;19920;-72
2022/01/05 10:28:08;;;;;;;;;;;;;;;;;;5094663;28;19916;-72
2022/01/05 10:30:41;;;;;;;;;;;;;;;;;;5094837;28;20331;-71
2022/01/05 10:33:07;;;;;;;;;;;;;;;;;;5093923;28;19916;-72
2022/01/05 10:35:33;;;;;;;;;;;;;;;;;;5094838;28;19916;-72
2022/01/05 10:38:00;;;;;;;;;;;;;;;;;;5094614;28;19916;-72
2022/01/05 10:40:25;;;;;;;;;;;;;;;;;;5093265;28;19923;-73
2022/01/05 10:42:52;;;;;;;;;;;;;;;;;;5094626;28;19923;-72
2022/01/05 10:45:19;;;;;;;;;;;;;;;;;;5094251;28;19920;-73
2022/01/05 10:48:00;;;;;;;;;;;;;;;;;;5094260;28;19921;-72
2022/01/05 10:50:26;;;;;;;;;;;;;;;;;;5094074;28;19920;-73
2022/01/05 10:52:55;;;;;;;;;;;;;;;;;;5094219;28;19969;-73
2022/01/05 10:55:23;;;;;;;;;;;;;;;;;;5094029;28;19923;-73
2022/01/05 10:58:05;;;;;;;;;;;;;;;;;;5093207;28;20331;-73
2022/01/05 11:00:30;;;;;;;;;;;;;;;;;;5094178;28;19920;-73
2022/01/05 11:02:55;;;;;;;;;;;;;;;;;;5094191;28;19923;-74
2022/01/05 11:05:21;;;;;;;;;;;;;;;;;;5092965;28;19966;-74
2022/01/05 11:07:47;;;;;;;;;;;;;;;;;;5094019;28;19923;-74
2022/01/05 11:10:16;;;;;;;;;;;;;;;;;;5094329;28;19969;-73
2022/01/05 11:12:52;;;;;;;;;;;;;;;;;;5094238;28;19916;-73
2022/01/05 11:15:18;;;;;;;;;;;;;;;;;;5093961;28;19920;-74
2022/01/05 11:18:08;;;;;;;;;;;;;;;;;;5093871;28;19912;-73
2022/01/05 11:20:35;;;;;;;;;;;;;;;;;;5086204;28;19961;-73
2022/01/05 11:23:00;;;;;;;;;;;;;;;;;;5092750;28;19991;-72
2022/01/05 11:25:25;;;;;;;;;;;;;;;;;;5093835;28;20508;-73
2022/01/05 11:27:51;;;;;;;;;;;;;;;;;;5093650;28;19916;-72
2022/01/05 11:30:16;;;;;;;;;;;;;;;;;;5092696;28;19923;-71
2022/01/05 11:32:42;;;;;;;;;;;;;;;;;;5093793;28;19939;-72
2022/01/05 11:35:07;;;;;;;;;;;;;;;;;;5093992;28;19925;-69
2022/01/05 11:37:34;;;;;;;;;;;;;;;;;;5093502;28;19986;-72
2022/01/05 11:40:02;;;;;;;;;;;;;;;;;;5091551;28;19922;-73
2022/01/05 11:42:29;;;;;;;;;;;;;;;;;;5091886;28;19970;-74
2022/01/05 11:44:54;;;;;;;;;;;;;;;;;;5092207;28;19920;-74
2022/01/05 11:47:30;;;;;;;;;;;;;;;;;;5091524;28;19920;-72
2022/01/05 11:50:15;;;;;;;;;;;;;;;;;;5093501;28;19920;-72
2022/01/05 11:52:58;;;;;;;;;;;;;;;;;;5093335;28;19916;-72
2022/01/05 11:55:24;;;;;;;;;;;;;;;;;;5093160;28;19970;-72
2022/01/05 11:58:08;;;;;;;;;;;;;;;;;;5096213;28;19916;-72
2022/01/05 12:00:33;;;;;;;;;;;;;;;;;;5096625;28;19961;-72
2022/01/05 12:02:58;;;;;;;;;;;;;;;;;;5093256;28;19920;-72
2022/01/05 12:05:23;;;;;;;;;;;;;;;;;;5086162;28;19960;-73
2022/01/05 12:07:51;;;;;;;;;;;;;;;;;;5086410;28;20011;-72
2022/01/05 12:10:21;;;;;;;;;;;;;;;;;;5087659;28;19916;-73
2022/01/05 12:12:54;;;;;;;;;;;;;;;;;;5084471;28;19931;-71
2022/01/05 12:15:45;;;;;;;;;;;;;;;;;;5087701;28;19916;-71
2022/01/05 12:18:12;;;;;;;;;;;;;;;;;;5085661;28;19916;-72
2022/01/05 12:20:39;;;;;;;;;;;;;;;;;;5097042;28;19916;-72
2022/01/05 12:23:18;;;;;;;;;;;;;;;;;;5097259;28;19916;-72
2022/01/05 12:26:02;;;;;;;;;;;;;;;;;;5097111;28;19927;-72
2022/01/05 12:28:38;;;;;;;;;;;;;;;;;;5097061;28;19962;-73
2022/01/05 12:31:04;;;;;;;;;;;;;;;;;;5096960;28;19916;-73
2022/01/05 12:33:46;;;;;;;;;;;;;;;;;;5095922;28;19923;-70
2022/01/05 12:36:14;;;;;;;;;;;;;;;;;;5097030;28;19916;-70
2022/01/05 12:38:45;;;;;;;;;;;;;;;;;;5097068;28;19916;-71
2022/01/05 12:41:24;;;;;;;;;;;;;;;;;;5096695;28;19916;-71
2022/01/05 12:43:50;;;;;;;;;;;;;;;;;;5095695;28;19916;-71
2022/01/05 12:46:31;;;;;;;;;;;;;;;;;;5094483;28;19974;-72
2022/01/05 12:48:58;;;;;;;;;;;;;;;;;;5096790;28;19966;-72
2022/01/05 12:51:34;;;;;;;;;;;;;;;;;;5095950;28;20358;-72
2022/01/05 12:54:01;;;;;;;;;;;;;;;;;;5096331;28;20302;-72
2022/01/05 12:56:27;;;;;;;;;;;;;;;;;;5095345;28;20015;-72
2022/01/05 12:58:52;;;;;;;;;;;;;;;;;;5096585;28;20010;-72
2022/01/05 13:01:18;;;;;;;;;;;;;;;;;;5096361;28;20330;-72
2022/01/05 13:03:43;;;;;;;;;;;;;;;;;;5095167;28;19974;-72
2022/01/05 13:06:13;;;;;;;;;;;;;;;;;;5094979;28;20368;-72
2022/01/05 13:08:44;;;;;;;;;;;;;;;;;;5096178;28;19924;-72
2022/01/05 13:11:10;;;;;;;;;;;;;;;;;;5096234;28;19916;-72
2022/01/05 13:13:35;;;;;;;;;;;;;;;;;;5096311;28;19927;-72
2022/01/05 13:16:07;;;;;;;;;;;;;;;;;;5095035;28;19923;-72
2022/01/05 13:18:32;;;;;;;;;;;;;;;;;;5096253;28;19923;-72
2022/01/05 13:20:58;;;;;;;;;;;;;;;;;;5095181;28;19920;-72
2022/01/05 13:23:23;;;;;;;;;;;;;;;;;;5096161;28;19916;-72
2022/01/05 13:25:48;;;;;;;;;;;;;;;;;;5094871;28;19920;-72
2022/01/05 13:28:14;;;;;;;;;;;;;;;;;;5096047;28;19916;-73
2022/01/05 13:30:39;;;;;;;;;;;;;;;;;;5096016;28;19947;-73
2022/01/05 13:33:11;;;;;;;;;;;;;;;;;;5095686;28;19920;-73
2022/01/05 13:35:37;;;;;;;;;;;;;;;;;;5094900;28;19952;-72
2022/01/05 13:38:03;;;;;;;;;;;;;;;;;;5094378;28;19959;-74
2022/01/05 13:40:30;;;;;;;;;;;;;;;;;;5095706;28;20466;-72
2022/01/05 13:43:02;;;;;;;;;;;;;;;;;;5095627;28;20361;-73
2022/01/05 13:45:30;;;;;;;;;;;;;;;;;;5095040;28;19920;-73
2022/01/05 13:48:00;;;;;;;;;;;;;;;;;;5093711;28;19980;-73
2022/01/05 13:50:27;;;;;;;;;;;;;;;;;;5095638;28;19920;-73
2022/01/05 13:53:04;;;;;;;;;;;;;;;;;;5095300;28;20057;-73
2022/01/05 13:55:33;;;;;;;;;;;;;;;;;;5094987;28;20015;-73
2022/01/05 13:58:02;;;;;;;;;;;;;;;;;;5095007;28;19923;-73
2022/01/05 14:00:28;;;;;;;;;;;;;;;;;;5095360;28;20365;-73
2022/01/05 14:02:53;;;;;;;;;;;;;;;;;;5095205;28;19919;-73
2022/01/05 14:05:18;;;;;;;;;;;;;;;;;;5094164;28;19927;-73
2022/01/05 14:07:43;;;;;;;;;;;;;;;;;;5095448;28;19916;-73
2022/01/05 14:10:16;;;;;;;;;;;;;;;;;;5094497;28;19922;-73
2022/01/05 14:12:41;;;;;;;;;;;;;;;;;;5095105;28;19923;-73
2022/01/05 14:15:08;;;;;;;;;;;;;;;;;;5095225;28;19916;-73
2022/01/05 14:17:33;;;;;;;;;;;;;;;;;;5095074;28;19939;-73
2022/01/05 14:20:11;;;;;;;;;;;;;;;;;;5094527;28;19919;-73
2022/01/05 14:22:37;;;;;;;;;;;;;;;;;;5094995;28;19969;-73
2022/01/05 14:25:03;;;;;;;;;;;;;;;;;;5094979;28;19920;-73
2022/01/05 14:27:34;;;;;;;;;;;;;;;;;;5094766;28;19916;-73
2022/01/05 14:30:00;;;;;;;;;;;;;;;;;;5093774;28;20027;-73
2022/01/05 14:32:32;;;;;;;;;;;;;;;;;;5095065;28;19971;-73
2022/01/05 14:34:59;;;;;;;;;;;;;;;;;;5093883;28;20007;-73
2022/01/05 14:37:25;;;;;;;;;;;;;;;;;;5094748;28;19969;-73
2022/01/05 14:39:51;;;;;;;;;;;;;;;;;;5094556;28;19920;-73
2022/01/05 14:42:18;;;;;;;;;;;;;;;;;;5094532;28;20021;-73
2022/01/05 14:44:47;;;;;;;;;;;;;;;;;;5094675;28;20365;-73
2022/01/05 14:47:13;;;;;;;;;;;;;;;;;;5093460;28;19983;-73
2022/01/05 14:49:40;;;;;;;;;;;;;;;;;;5094566;28;19922;-73
2022/01/05 14:52:07;;;;;;;;;;;;;;;;;;5094472;28;19927;-72
2022/01/05 14:54:36;;;;;;;;;;;;;;;;;;5093564;28;20365;-73
2022/01/05 14:57:02;;;;;;;;;;;;;;;;;;5094241;28;19917;-73
2022/01/05 14:59:27;;;;;;;;;;;;;;;;;;5094505;28;20054;-73
2022/01/05 15:01:52;;;;;;;;;;;;;;;;;;5094326;28;19923;-72
2022/01/05 15:04:18;;;;;;;;;;;;;;;;;;5093313;28;20318;-72
2022/01/05 15:06:43;;;;;;;;;;;;;;;;;;5094156;28;19916;-73
2022/01/05 15:09:10;;;;;;;;;;;;;;;;;;5093113;28;19939;-73
2022/01/05 15:11:36;;;;;;;;;;;;;;;;;;5094232;28;19928;-72
2022/01/05 15:14:01;;;;;;;;;;;;;;;;;;5094144;28;20003;-72
2022/01/05 15:16:27;;;;;;;;;;;;;;;;;;5094099;28;20412;-72
2022/01/05 15:18:52;;;;;;;;;;;;;;;;;;5093389;28;20320;-73
2022/01/05 15:21:17;;;;;;;;;;;;;;;;;;5093958;28;19916;-73
2022/01/05 15:23:43;;;;;;;;;;;;;;;;;;5094011;28;20419;-73
2022/01/05 15:26:11;;;;;;;;;;;;;;;;;;5093818;28;19920;-73
2022/01/05 15:28:36;;;;;;;;;;;;;;;;;;5093989;28;19916;-72
2022/01/05 15:31:02;;;;;;;;;;;;;;;;;;5092369;28;20312;-72
2022/01/05 15:33:28;;;;;;;;;;;;;;;;;;5093599;28;19968;-72
2022/01/05 15:35:54;;;;;;;;;;;;;;;;;;5093439;28;19923;-73
2022/01/05 15:38:20;;;;;;;;;;;;;;;;;;5093605;28;19962;-73
2022/01/05 15:40:46;;;;;;;;;;;;;;;;;;5092722;28;20368;-73
2022/01/05 15:43:11;;;;;;;;;;;;;;;;;;5093896;28;19912;-73
2022/01/05 15:45:36;;;;;;;;;;;;;;;;;;5093565;28;19927;-73
2022/01/05 15:48:02;;;;;;;;;;;;;;;;;;5093636;28;19920;-72
2022/01/05 15:50:29;;;;;;;;;;;;;;;;;;5093159;28;20305;-72
2022/01/05 15:52:55;;;;;;;;;;;;;;;;;;5092545;28;20280;-73
2022/01/05 15:55:22;;;;;;;;;;;;;;;;;;5093565;28;19923;-73
2022/01/05 15:57:55;;;;;;;;;;;;;;;;;;5093614;28;19970;-73
2022/01/05 16:03:04;;;;;;;;;;;;;;;;;;5093502;28;19923;-72
2022/01/05 16:05:30;;;;;;;;;;;;;;;;;;5092721;28;19928;-73
2022/01/05 16:07:55;;;;;;;;;;;;;;;;;;5093710;28;19920;-73
2022/01/05 16:10:21;;;;;;;;;;;;;;;;;;5092882;28;19961;-73
2022/01/05 16:12:46;;;;;;;;;;;;;;;;;;5093581;28;20003;-72
2022/01/05 16:15:13;;;;;;;;;;;;;;;;;;5093562;28;19923;-72
2022/01/05 16:17:39;;;;;;;;;;;;;;;;;;5092758;28;19920;-73
2022/01/05 16:20:05;;;;;;;;;;;;;;;;;;5091564;28;19920;-72
2022/01/05 16:22:30;;;;;;;;;;;;;;;;;;5092771;28;19972;-72
2022/01/05 16:24:55;;;;;;;;;;;;;;;;;;5093361;28;19920;-71
2022/01/05 16:27:21;;;;;;;;;;;;;;;;;;5091591;28;19986;-72
2022/01/05 16:29:46;;;;;;;;;;;;;;;;;;5093378;28;19919;-71
2022/01/05 16:32:11;;;;;;;;;;;;;;;;;;5094461;28;19916;-71
2022/01/05 16:34:41;;;;;;;;;;;;;;;;;;5092044;28;19932;-72
2022/01/05 16:37:07;;;;;;;;;;;;;;;;;;5091769;28;19916;-71
2022/01/05 16:39:32;;;;;;;;;;;;;;;;;;5091785;28;19986;-71
2022/01/05 16:41:57;;;;;;;;;;;;;;;;;;5093020;28;19978;-71
2022/01/05 16:44:22;;;;;;;;;;;;;;;;;;5096033;28;19920;-72
2022/01/05 16:46:48;;;;;;;;;;;;;;;;;;5096501;28;19928;-72